sensor_id;sensor_type;location;lat;lon;timestamp;temperature;humidity
9849;DHT22;4963;51.444;6.528;2023-02-28T00:00:49;0.90;99.90
9849;DHT22;4963;51.444;6.528;2023-02-28T00:03:16;0.90;99.90
9849;DHT22;4963;51.444;6.528;2023-02-28T00:05:45;0.80;99.90
9849;DHT22;4963;51.444;6.528;2023-02-28T00:08:11;0.90;99.90
9849;DHT22;4963;51.444;6.528;2023-02-28T00:10:38;0.90;99.90
9849;DHT22;4963;51.444;6.528;2023-02-28T00:13:06;0.90;99.90
9849;DHT22;4963;51.444;6.528;2023-02-28T00:15:33;0.80;99.90
9849;DHT22;4963;51.444;6.528;2023-02-28T00:18:00;0.90;99.90
9849;DHT22;4963;51.444;6.528;2023-02-28T00:20:27;0.90;99.90
9849;DHT22;4963;51.444;6.528;2023-02-28T00:22:56;0.80;99.90
9849;DHT22;4963;51.444;6.528;2023-02-28T00:25:24;0.70;99.90
9849;DHT22;4963;51.444;6.528;2023-02-28T00:27:51;0.70;99.90
9849;DHT22;4963;51.444;6.528;2023-02-28T00:30:20;0.70;99.90
9849;DHT22;4963;51.444;6.528;2023-02-28T00:32:47;0.60;99.90
9849;DHT22;4963;51.444;6.528;2023-02-28T00:35:15;0.60;99.90
9849;DHT22;4963;51.444;6.528;2023-02-28T00:37:42;0.60;99.90
9849;DHT22;4963;51.444;6.528;2023-02-28T00:40:11;0.50;99.90
9849;DHT22;4963;51.444;6.528;2023-02-28T00:42:38;0.60;99.90
9849;DHT22;4963;51.444;6.528;2023-02-28T00:45:06;0.60;99.90
9849;DHT22;4963;51.444;6.528;2023-02-28T00:47:34;0.60;99.90
9849;DHT22;4963;51.444;6.528;2023-02-28T00:50:01;0.50;99.90
9849;DHT22;4963;51.444;6.528;2023-02-28T00:52:27;0.50;99.90
9849;DHT22;4963;51.444;6.528;2023-02-28T00:54:54;0.40;99.90
9849;DHT22;4963;51.444;6.528;2023-02-28T00:57:23;0.50;99.90
9849;DHT22;4963;51.444;6.528;2023-02-28T00:59:49;0.40;99.90
9849;DHT22;4963;51.444;6.528;2023-02-28T01:02:16;0.40;99.90
9849;DHT22;4963;51.444;6.528;2023-02-28T01:04:46;0.30;99.90
9849;DHT22;4963;51.444;6.528;2023-02-28T01:07:12;0.40;99.90
9849;DHT22;4963;51.444;6.528;2023-02-28T01:09:39;0.40;99.90
9849;DHT22;4963;51.444;6.528;2023-02-28T01:12:07;0.50;99.90
9849;DHT22;4963;51.444;6.528;2023-02-28T01:14:36;0.50;99.90
9849;DHT22;4963;51.444;6.528;2023-02-28T01:17:03;0.40;99.90
9849;DHT22;4963;51.444;6.528;2023-02-28T01:19:29;0.50;99.90
9849;DHT22;4963;51.444;6.528;2023-02-28T01:21:56;0.40;99.90
9849;DHT22;4963;51.444;6.528;2023-02-28T01:24:23;0.40;99.90
9849;DHT22;4963;51.444;6.528;2023-02-28T01:26:50;0.50;99.90
9849;DHT22;4963;51.444;6.528;2023-02-28T01:29:16;0.40;99.90
9849;DHT22;4963;51.444;6.528;2023-02-28T01:31:45;0.50;99.90
9849;DHT22;4963;51.444;6.528;2023-02-28T01:34:11;0.50;99.90
9849;DHT22;4963;51.444;6.528;2023-02-28T01:36:38;0.30;99.90
9849;DHT22;4963;51.444;6.528;2023-02-28T01:39:05;0.40;99.90
9849;DHT22;4963;51.444;6.528;2023-02-28T01:41:33;0.40;99.90
9849;DHT22;4963;51.444;6.528;2023-02-28T01:44:03;0.40;99.90
9849;DHT22;4963;51.444;6.528;2023-02-28T01:46:31;0.50;99.90
9849;DHT22;4963;51.444;6.528;2023-02-28T01:49:04;0.50;99.90
9849;DHT22;4963;51.444;6.528;2023-02-28T01:51:38;0.40;99.90
9849;DHT22;4963;51.444;6.528;2023-02-28T01:54:14;0.50;99.90
9849;DHT22;4963;51.444;6.528;2023-02-28T01:56:47;0.40;99.90
9849;DHT22;4963;51.444;6.528;2023-02-28T01:59:22;0.50;99.90
9849;DHT22;4963;51.444;6.528;2023-02-28T02:01:50;0.40;99.90
9849;DHT22;4963;51.444;6.528;2023-02-28T02:04:20;0.40;99.90
9849;DHT22;4963;51.444;6.528;2023-02-28T02:06:48;0.50;99.90
9849;DHT22;4963;51.444;6.528;2023-02-28T02:09:16;0.30;99.90
9849;DHT22;4963;51.444;6.528;2023-02-28T02:11:43;0.40;99.90
9849;DHT22;4963;51.444;6.528;2023-02-28T02:14:30;0.40;99.90
9849;DHT22;4963;51.444;6.528;2023-02-28T02:17:08;0.30;99.90
9849;DHT22;4963;51.444;6.528;2023-02-28T02:20:02;0.40;99.90
9849;DHT22;4963;51.444;6.528;2023-02-28T02:22:53;0.20;99.90
9849;DHT22;4963;51.444;6.528;2023-02-28T02:25:28;0.40;99.90
9849;DHT22;4963;51.444;6.528;2023-02-28T02:31:12;0.30;99.90
9849;DHT22;4963;51.444;6.528;2023-02-28T02:34:21;0.30;99.90
9849;DHT22;4963;51.444;6.528;2023-02-28T02:36:52;0.30;99.90
9849;DHT22;4963;51.444;6.528;2023-02-28T02:39:29;0.20;99.90
9849;DHT22;4963;51.444;6.528;2023-02-28T02:42:00;0.20;99.90
9849;DHT22;4963;51.444;6.528;2023-02-28T02:44:30;0.30;99.90
9849;DHT22;4963;51.444;6.528;2023-02-28T02:47:01;0.20;99.90
9849;DHT22;4963;51.444;6.528;2023-02-28T02:49:32;0.20;99.90
9849;DHT22;4963;51.444;6.528;2023-02-28T02:52:03;0.20;99.90
9849;DHT22;4963;51.444;6.528;2023-02-28T02:54:33;0.20;99.90
9849;DHT22;4963;51.444;6.528;2023-02-28T02:57:05;0.20;99.90
9849;DHT22;4963;51.444;6.528;2023-02-28T02:59:35;0.20;99.90
9849;DHT22;4963;51.444;6.528;2023-02-28T03:02:06;0.30;99.90
9849;DHT22;4963;51.444;6.528;2023-02-28T03:04:42;0.40;99.90
9849;DHT22;4963;51.444;6.528;2023-02-28T03:07:09;0.20;99.90
9849;DHT22;4963;51.444;6.528;2023-02-28T03:09:36;0.20;99.90
9849;DHT22;4963;51.444;6.528;2023-02-28T03:12:04;0.20;99.90
9849;DHT22;4963;51.444;6.528;2023-02-28T03:14:40;0.20;99.90
9849;DHT22;4963;51.444;6.528;2023-02-28T03:17:24;0.20;99.90
9849;DHT22;4963;51.444;6.528;2023-02-28T03:20:03;0.10;99.90
9849;DHT22;4963;51.444;6.528;2023-02-28T03:22:49;0.00;99.90
9849;DHT22;4963;51.444;6.528;2023-02-28T03:25:22;0.10;99.90
9849;DHT22;4963;51.444;6.528;2023-02-28T03:28:00;0.00;99.90
9849;DHT22;4963;51.444;6.528;2023-02-28T03:30:36;-0.10;99.90
9849;DHT22;4963;51.444;6.528;2023-02-28T03:33:08;0.00;99.90
9849;DHT22;4963;51.444;6.528;2023-02-28T03:35:42;-0.10;99.90
9849;DHT22;4963;51.444;6.528;2023-02-28T03:38:13;-0.20;99.90
9849;DHT22;4963;51.444;6.528;2023-02-28T03:40:45;-0.20;99.90
9849;DHT22;4963;51.444;6.528;2023-02-28T03:43:18;-0.20;99.90
9849;DHT22;4963;51.444;6.528;2023-02-28T03:45:48;0.00;99.90
9849;DHT22;4963;51.444;6.528;2023-02-28T03:48:18;-0.10;99.90
9849;DHT22;4963;51.444;6.528;2023-02-28T03:50:50;-0.20;99.90
9849;DHT22;4963;51.444;6.528;2023-02-28T03:53:25;-0.30;99.90
9849;DHT22;4963;51.444;6.528;2023-02-28T03:55:54;-0.20;99.90
9849;DHT22;4963;51.444;6.528;2023-02-28T03:58:26;-0.10;99.90
9849;DHT22;4963;51.444;6.528;2023-02-28T04:00:57;-0.20;99.90
9849;DHT22;4963;51.444;6.528;2023-02-28T04:03:25;-0.20;99.90
9849;DHT22;4963;51.444;6.528;2023-02-28T04:05:55;-0.20;99.90
9849;DHT22;4963;51.444;6.528;2023-02-28T04:08:22;-0.20;99.90
9849;DHT22;4963;51.444;6.528;2023-02-28T04:10:53;-0.30;99.90
9849;DHT22;4963;51.444;6.528;2023-02-28T04:13:22;-0.20;99.90
9849;DHT22;4963;51.444;6.528;2023-02-28T04:15:48;-0.20;99.90
9849;DHT22;4963;51.444;6.528;2023-02-28T04:18:15;-0.20;99.90
9849;DHT22;4963;51.444;6.528;2023-02-28T04:20:42;-0.20;99.90
9849;DHT22;4963;51.444;6.528;2023-02-28T04:23:10;-0.20;99.90
9849;DHT22;4963;51.444;6.528;2023-02-28T04:25:37;-0.30;99.90
9849;DHT22;4963;51.444;6.528;2023-02-28T04:28:05;-0.30;99.90
9849;DHT22;4963;51.444;6.528;2023-02-28T04:30:32;-0.30;99.90
9849;DHT22;4963;51.444;6.528;2023-02-28T04:32:59;-0.40;99.90
9849;DHT22;4963;51.444;6.528;2023-02-28T04:35:26;-0.30;99.90
9849;DHT22;4963;51.444;6.528;2023-02-28T04:37:53;-0.30;99.90
9849;DHT22;4963;51.444;6.528;2023-02-28T04:40:21;-0.50;99.90
9849;DHT22;4963;51.444;6.528;2023-02-28T04:42:48;-0.40;99.90
9849;DHT22;4963;51.444;6.528;2023-02-28T04:45:15;-0.50;99.90
9849;DHT22;4963;51.444;6.528;2023-02-28T04:47:42;-0.40;99.90
9849;DHT22;4963;51.444;6.528;2023-02-28T04:50:10;-0.40;99.90
9849;DHT22;4963;51.444;6.528;2023-02-28T04:52:37;-0.50;99.90
9849;DHT22;4963;51.444;6.528;2023-02-28T04:55:04;-0.50;99.90
9849;DHT22;4963;51.444;6.528;2023-02-28T04:57:33;-0.50;99.90
9849;DHT22;4963;51.444;6.528;2023-02-28T05:00:00;-0.50;99.90
9849;DHT22;4963;51.444;6.528;2023-02-28T05:02:26;-0.50;99.90
9849;DHT22;4963;51.444;6.528;2023-02-28T05:04:53;-0.50;99.90
9849;DHT22;4963;51.444;6.528;2023-02-28T05:07:20;-0.60;99.90
9849;DHT22;4963;51.444;6.528;2023-02-28T05:09:47;-0.50;99.90
9849;DHT22;4963;51.444;6.528;2023-02-28T05:12:13;-0.50;99.90
9849;DHT22;4963;51.444;6.528;2023-02-28T05:14:42;-0.60;99.90
9849;DHT22;4963;51.444;6.528;2023-02-28T05:17:09;-0.40;99.90
9849;DHT22;4963;51.444;6.528;2023-02-28T05:19:36;-0.50;99.90
9849;DHT22;4963;51.444;6.528;2023-02-28T05:22:03;-0.50;99.90
9849;DHT22;4963;51.444;6.528;2023-02-28T05:24:30;-0.20;99.90
9849;DHT22;4963;51.444;6.528;2023-02-28T05:26:56;-0.40;99.90
9849;DHT22;4963;51.444;6.528;2023-02-28T05:29:23;-0.40;99.90
9849;DHT22;4963;51.444;6.528;2023-02-28T05:31:51;-0.40;99.90
9849;DHT22;4963;51.444;6.528;2023-02-28T05:34:18;-0.40;99.90
9849;DHT22;4963;51.444;6.528;2023-02-28T05:36:45;-0.40;99.90
9849;DHT22;4963;51.444;6.528;2023-02-28T05:39:12;-0.40;99.90
9849;DHT22;4963;51.444;6.528;2023-02-28T05:41:42;-0.40;99.90
9849;DHT22;4963;51.444;6.528;2023-02-28T05:44:09;-0.40;99.90
9849;DHT22;4963;51.444;6.528;2023-02-28T05:46:36;-0.50;99.90
9849;DHT22;4963;51.444;6.528;2023-02-28T05:49:05;-0.50;99.90
9849;DHT22;4963;51.444;6.528;2023-02-28T05:51:32;-0.50;99.90
9849;DHT22;4963;51.444;6.528;2023-02-28T05:54:00;-0.60;99.90
9849;DHT22;4963;51.444;6.528;2023-02-28T05:56:27;-0.60;99.90
9849;DHT22;4963;51.444;6.528;2023-02-28T05:58:54;-0.60;99.90
9849;DHT22;4963;51.444;6.528;2023-02-28T06:01:24;-0.60;99.90
9849;DHT22;4963;51.444;6.528;2023-02-28T06:03:51;-0.60;99.90
9849;DHT22;4963;51.444;6.528;2023-02-28T06:06:19;-0.60;99.90
9849;DHT22;4963;51.444;6.528;2023-02-28T06:08:46;-0.80;99.90
9849;DHT22;4963;51.444;6.528;2023-02-28T06:11:13;-0.80;99.90
9849;DHT22;4963;51.444;6.528;2023-02-28T06:13:40;-0.70;99.90
9849;DHT22;4963;51.444;6.528;2023-02-28T06:16:08;-0.70;99.90
9849;DHT22;4963;51.444;6.528;2023-02-28T06:18:36;-0.80;99.90
9849;DHT22;4963;51.444;6.528;2023-02-28T06:21:03;-0.70;99.90
9849;DHT22;4963;51.444;6.528;2023-02-28T06:23:32;-0.70;99.90
9849;DHT22;4963;51.444;6.528;2023-02-28T06:25:58;-0.70;99.90
9849;DHT22;4963;51.444;6.528;2023-02-28T06:28:26;-0.70;99.90
9849;DHT22;4963;51.444;6.528;2023-02-28T06:30:52;-0.50;99.90
9849;DHT22;4963;51.444;6.528;2023-02-28T06:33:19;-0.80;99.90
9849;DHT22;4963;51.444;6.528;2023-02-28T06:35:46;-0.80;99.90
9849;DHT22;4963;51.444;6.528;2023-02-28T06:38:13;-0.80;99.90
9849;DHT22;4963;51.444;6.528;2023-02-28T06:40:41;-0.80;99.90
9849;DHT22;4963;51.444;6.528;2023-02-28T06:43:09;-0.70;99.90
9849;DHT22;4963;51.444;6.528;2023-02-28T06:45:41;-0.60;99.90
9849;DHT22;4963;51.444;6.528;2023-02-28T06:48:08;-0.60;99.90
9849;DHT22;4963;51.444;6.528;2023-02-28T06:50:35;-0.50;99.90
9849;DHT22;4963;51.444;6.528;2023-02-28T06:53:03;-0.60;99.90
9849;DHT22;4963;51.444;6.528;2023-02-28T06:55:29;-0.60;99.90
9849;DHT22;4963;51.444;6.528;2023-02-28T06:57:58;-0.50;99.90
9849;DHT22;4963;51.444;6.528;2023-02-28T07:00:25;-0.50;99.90
9849;DHT22;4963;51.444;6.528;2023-02-28T07:02:52;-0.50;99.90
9849;DHT22;4963;51.444;6.528;2023-02-28T07:05:20;-0.50;99.90
9849;DHT22;4963;51.444;6.528;2023-02-28T07:07:47;-0.50;99.90
9849;DHT22;4963;51.444;6.528;2023-02-28T07:10:14;-0.50;99.90
9849;DHT22;4963;51.444;6.528;2023-02-28T07:12:42;-0.50;99.90
9849;DHT22;4963;51.444;6.528;2023-02-28T07:15:11;-0.50;99.90
9849;DHT22;4963;51.444;6.528;2023-02-28T07:17:38;-0.40;99.90
9849;DHT22;4963;51.444;6.528;2023-02-28T07:20:06;-0.40;99.90
9849;DHT22;4963;51.444;6.528;2023-02-28T07:22:32;-0.30;99.90
9849;DHT22;4963;51.444;6.528;2023-02-28T07:24:59;-0.40;99.90
9849;DHT22;4963;51.444;6.528;2023-02-28T07:27:26;-0.30;99.90
9849;DHT22;4963;51.444;6.528;2023-02-28T07:29:53;0.00;99.90
9849;DHT22;4963;51.444;6.528;2023-02-28T07:32:22;0.30;99.90
9849;DHT22;4963;51.444;6.528;2023-02-28T07:34:48;0.80;99.90
9849;DHT22;4963;51.444;6.528;2023-02-28T07:37:15;1.20;99.90
9849;DHT22;4963;51.444;6.528;2023-02-28T07:39:42;1.60;99.90
9849;DHT22;4963;51.444;6.528;2023-02-28T07:42:09;1.70;99.90
9849;DHT22;4963;51.444;6.528;2023-02-28T07:44:37;1.80;99.90
9849;DHT22;4963;51.444;6.528;2023-02-28T07:47:06;1.70;99.90
9849;DHT22;4963;51.444;6.528;2023-02-28T07:49:36;1.70;99.90
9849;DHT22;4963;51.444;6.528;2023-02-28T07:52:03;1.50;99.90
9849;DHT22;4963;51.444;6.528;2023-02-28T07:54:30;1.40;99.90
9849;DHT22;4963;51.444;6.528;2023-02-28T07:56:57;1.30;99.90
9849;DHT22;4963;51.444;6.528;2023-02-28T07:59:24;1.30;99.90
9849;DHT22;4963;51.444;6.528;2023-02-28T08:01:51;1.40;99.90
9849;DHT22;4963;51.444;6.528;2023-02-28T08:04:18;1.20;99.90
9849;DHT22;4963;51.444;6.528;2023-02-28T08:06:46;1.20;99.90
9849;DHT22;4963;51.444;6.528;2023-02-28T08:09:13;1.20;99.90
9849;DHT22;4963;51.444;6.528;2023-02-28T08:11:40;1.30;99.90
9849;DHT22;4963;51.444;6.528;2023-02-28T08:14:07;1.30;99.90
9849;DHT22;4963;51.444;6.528;2023-02-28T08:16:33;1.30;99.90
9849;DHT22;4963;51.444;6.528;2023-02-28T08:19:00;1.30;99.90
9849;DHT22;4963;51.444;6.528;2023-02-28T08:21:27;1.40;99.90
9849;DHT22;4963;51.444;6.528;2023-02-28T08:23:55;1.50;99.90
9849;DHT22;4963;51.444;6.528;2023-02-28T08:26:22;1.70;99.90
9849;DHT22;4963;51.444;6.528;2023-02-28T08:28:49;1.90;99.90
9849;DHT22;4963;51.444;6.528;2023-02-28T08:31:16;2.10;99.90
9849;DHT22;4963;51.444;6.528;2023-02-28T08:33:43;2.30;98.80
9849;DHT22;4963;51.444;6.528;2023-02-28T08:36:11;2.40;99.20
9849;DHT22;4963;51.444;6.528;2023-02-28T08:38:38;2.50;98.80
9849;DHT22;4963;51.444;6.528;2023-02-28T08:41:09;2.60;98.60
9849;DHT22;4963;51.444;6.528;2023-02-28T08:43:37;2.80;98.60
9849;DHT22;4963;51.444;6.528;2023-02-28T08:46:04;2.90;98.40
9849;DHT22;4963;51.444;6.528;2023-02-28T08:48:33;3.00;98.40
9849;DHT22;4963;51.444;6.528;2023-02-28T08:51:03;3.10;96.30
9849;DHT22;4963;51.444;6.528;2023-02-28T08:53:31;3.40;95.30
9849;DHT22;4963;51.444;6.528;2023-02-28T08:55:59;3.30;95.20
9849;DHT22;4963;51.444;6.528;2023-02-28T08:58:28;3.50;95.30
9849;DHT22;4963;51.444;6.528;2023-02-28T09:00:55;3.50;94.30
9849;DHT22;4963;51.444;6.528;2023-02-28T09:03:22;3.80;94.50
9849;DHT22;4963;51.444;6.528;2023-02-28T09:05:54;3.50;93.80
9849;DHT22;4963;51.444;6.528;2023-02-28T09:08:22;3.50;92.90
9849;DHT22;4963;51.444;6.528;2023-02-28T09:10:48;3.50;91.30
9849;DHT22;4963;51.444;6.528;2023-02-28T09:13:15;3.50;91.70
9849;DHT22;4963;51.444;6.528;2023-02-28T09:15:43;3.50;92.30
9849;DHT22;4963;51.444;6.528;2023-02-28T09:18:11;3.50;92.60
9849;DHT22;4963;51.444;6.528;2023-02-28T09:20:38;3.80;91.90
9849;DHT22;4963;51.444;6.528;2023-02-28T09:23:05;3.30;91.60
9849;DHT22;4963;51.444;6.528;2023-02-28T09:25:32;3.30;91.50
9849;DHT22;4963;51.444;6.528;2023-02-28T09:27:59;3.30;91.10
9849;DHT22;4963;51.444;6.528;2023-02-28T09:30:26;3.30;91.70
9849;DHT22;4963;51.444;6.528;2023-02-28T09:32:55;3.30;91.80
9849;DHT22;4963;51.444;6.528;2023-02-28T09:35:23;3.50;91.80
9849;DHT22;4963;51.444;6.528;2023-02-28T09:37:50;3.50;92.50
9849;DHT22;4963;51.444;6.528;2023-02-28T09:40:19;3.50;92.30
9849;DHT22;4963;51.444;6.528;2023-02-28T09:42:48;3.50;92.30
9849;DHT22;4963;51.444;6.528;2023-02-28T09:45:22;3.60;91.10
9849;DHT22;4963;51.444;6.528;2023-02-28T09:47:51;3.60;91.20
9849;DHT22;4963;51.444;6.528;2023-02-28T09:50:28;3.50;90.80
9849;DHT22;4963;51.444;6.528;2023-02-28T09:52:56;3.60;91.50
9849;DHT22;4963;51.444;6.528;2023-02-28T09:55:29;3.60;91.30
9849;DHT22;4963;51.444;6.528;2023-02-28T09:57:57;3.60;91.00
9849;DHT22;4963;51.444;6.528;2023-02-28T10:00:32;3.60;90.50
9849;DHT22;4963;51.444;6.528;2023-02-28T10:03:11;3.60;90.30
9849;DHT22;4963;51.444;6.528;2023-02-28T10:05:43;3.70;90.30
9849;DHT22;4963;51.444;6.528;2023-02-28T10:08:17;3.70;90.30
9849;DHT22;4963;51.444;6.528;2023-02-28T10:10:47;3.70;90.30
9849;DHT22;4963;51.444;6.528;2023-02-28T10:13:23;3.50;89.70
9849;DHT22;4963;51.444;6.528;2023-02-28T10:15:55;3.80;90.20
9849;DHT22;4963;51.444;6.528;2023-02-28T10:18:27;3.60;90.30
9849;DHT22;4963;51.444;6.528;2023-02-28T10:20:58;3.60;90.10
9849;DHT22;4963;51.444;6.528;2023-02-28T10:23:28;3.60;90.00
9849;DHT22;4963;51.444;6.528;2023-02-28T10:26:01;3.60;90.00
9849;DHT22;4963;51.444;6.528;2023-02-28T10:28:32;3.70;89.80
9849;DHT22;4963;51.444;6.528;2023-02-28T10:30:59;3.80;88.90
9849;DHT22;4963;51.444;6.528;2023-02-28T10:33:29;3.70;89.10
9849;DHT22;4963;51.444;6.528;2023-02-28T10:35:58;3.80;89.30
9849;DHT22;4963;51.444;6.528;2023-02-28T10:38:27;3.80;89.10
9849;DHT22;4963;51.444;6.528;2023-02-28T10:41:04;3.80;88.40
9849;DHT22;4963;51.444;6.528;2023-02-28T10:43:32;3.90;89.00
9849;DHT22;4963;51.444;6.528;2023-02-28T10:46:01;3.90;88.90
9849;DHT22;4963;51.444;6.528;2023-02-28T10:48:37;3.90;89.80
9849;DHT22;4963;51.444;6.528;2023-02-28T10:51:08;3.90;88.80
9849;DHT22;4963;51.444;6.528;2023-02-28T10:53:38;3.90;88.50
9849;DHT22;4963;51.444;6.528;2023-02-28T10:56:15;4.00;88.60
9849;DHT22;4963;51.444;6.528;2023-02-28T10:58:49;3.80;88.90
9849;DHT22;4963;51.444;6.528;2023-02-28T11:01:18;4.00;88.60
9849;DHT22;4963;51.444;6.528;2023-02-28T11:03:46;4.00;88.90
9849;DHT22;4963;51.444;6.528;2023-02-28T11:06:17;3.90;88.40
9849;DHT22;4963;51.444;6.528;2023-02-28T11:08:47;4.00;88.40
9849;DHT22;4963;51.444;6.528;2023-02-28T11:11:14;3.90;88.20
9849;DHT22;4963;51.444;6.528;2023-02-28T11:13:44;3.90;88.30
9849;DHT22;4963;51.444;6.528;2023-02-28T11:16:12;3.90;88.00
9849;DHT22;4963;51.444;6.528;2023-02-28T11:18:43;3.90;85.70
9849;DHT22;4963;51.444;6.528;2023-02-28T11:21:18;3.80;86.40
9849;DHT22;4963;51.444;6.528;2023-02-28T11:23:47;4.00;87.40
9849;DHT22;4963;51.444;6.528;2023-02-28T11:26:16;4.00;87.20
9849;DHT22;4963;51.444;6.528;2023-02-28T11:29:09;4.20;87.80
9849;DHT22;4963;51.444;6.528;2023-02-28T11:31:36;4.10;87.10
9849;DHT22;4963;51.444;6.528;2023-02-28T11:34:23;4.10;87.20
9849;DHT22;4963;51.444;6.528;2023-02-28T11:36:56;4.10;89.00
9849;DHT22;4963;51.444;6.528;2023-02-28T11:39:24;4.20;88.60
9849;DHT22;4963;51.444;6.528;2023-02-28T11:42:11;4.30;88.90
9849;DHT22;4963;51.444;6.528;2023-02-28T11:44:54;4.30;87.60
9849;DHT22;4963;51.444;6.528;2023-02-28T11:47:32;4.30;88.10
9849;DHT22;4963;51.444;6.528;2023-02-28T11:50:16;4.30;88.10
9849;DHT22;4963;51.444;6.528;2023-02-28T11:52:48;4.30;88.50
9849;DHT22;4963;51.444;6.528;2023-02-28T11:55:23;4.50;88.60
9849;DHT22;4963;51.444;6.528;2023-02-28T11:58:05;4.40;87.90
9849;DHT22;4963;51.444;6.528;2023-02-28T12:00:40;4.40;87.30
9849;DHT22;4963;51.444;6.528;2023-02-28T12:03:26;4.50;87.60
9849;DHT22;4963;51.444;6.528;2023-02-28T12:06:01;4.50;87.60
9849;DHT22;4963;51.444;6.528;2023-02-28T12:08:44;4.20;86.70
9849;DHT22;4963;51.444;6.528;2023-02-28T12:11:19;4.20;87.70
9849;DHT22;4963;51.444;6.528;2023-02-28T12:14:06;4.10;88.20
9849;DHT22;4963;51.444;6.528;2023-02-28T12:16:44;4.20;88.60
9849;DHT22;4963;51.444;6.528;2023-02-28T12:19:20;4.30;87.90
9849;DHT22;4963;51.444;6.528;2023-02-28T12:22:11;4.20;87.20
9849;DHT22;4963;51.444;6.528;2023-02-28T12:24:50;4.30;87.20
9849;DHT22;4963;51.444;6.528;2023-02-28T12:27:23;4.30;86.10
9849;DHT22;4963;51.444;6.528;2023-02-28T12:29:55;4.40;86.20
9849;DHT22;4963;51.444;6.528;2023-02-28T12:32:26;4.40;86.80
9849;DHT22;4963;51.444;6.528;2023-02-28T12:34:57;4.30;87.10
9849;DHT22;4963;51.444;6.528;2023-02-28T12:37:29;4.30;88.70
9849;DHT22;4963;51.444;6.528;2023-02-28T12:40:02;4.40;88.20
9849;DHT22;4963;51.444;6.528;2023-02-28T12:42:33;4.60;88.60
9849;DHT22;4963;51.444;6.528;2023-02-28T12:45:06;4.50;88.30
9849;DHT22;4963;51.444;6.528;2023-02-28T12:47:35;4.60;88.10
9849;DHT22;4963;51.444;6.528;2023-02-28T12:50:04;4.50;88.40
9849;DHT22;4963;51.444;6.528;2023-02-28T12:52:41;4.60;87.80
9849;DHT22;4963;51.444;6.528;2023-02-28T12:55:17;4.80;88.40
9849;DHT22;4963;51.444;6.528;2023-02-28T12:57:51;4.60;88.80
9849;DHT22;4963;51.444;6.528;2023-02-28T13:00:22;4.70;87.70
9849;DHT22;4963;51.444;6.528;2023-02-28T13:03:22;4.80;88.10
9849;DHT22;4963;51.444;6.528;2023-02-28T13:09:04;4.90;89.10
9849;DHT22;4963;51.444;6.528;2023-02-28T13:11:42;5.00;88.00
9849;DHT22;4963;51.444;6.528;2023-02-28T13:14:23;4.80;88.30
9849;DHT22;4963;51.444;6.528;2023-02-28T13:16:55;4.80;88.20
9849;DHT22;4963;51.444;6.528;2023-02-28T13:19:25;4.80;89.00
9849;DHT22;4963;51.444;6.528;2023-02-28T13:21:52;4.90;88.60
9849;DHT22;4963;51.444;6.528;2023-02-28T13:24:45;4.90;88.90
9849;DHT22;4963;51.444;6.528;2023-02-28T13:27:39;4.90;88.50
9849;DHT22;4963;51.444;6.528;2023-02-28T13:33:27;5.00;89.20
9849;DHT22;4963;51.444;6.528;2023-02-28T13:36:24;4.90;89.30
9849;DHT22;4963;51.444;6.528;2023-02-28T13:38:52;5.00;89.40
9849;DHT22;4963;51.444;6.528;2023-02-28T13:41:48;4.90;89.20
9849;DHT22;4963;51.444;6.528;2023-02-28T13:44:18;5.00;89.00
9849;DHT22;4963;51.444;6.528;2023-02-28T13:47:19;5.70;90.10
9849;DHT22;4963;51.444;6.528;2023-02-28T13:49:47;5.50;90.40
9849;DHT22;4963;51.444;6.528;2023-02-28T13:52:18;5.00;90.30
9849;DHT22;4963;51.444;6.528;2023-02-28T13:57:48;5.10;89.50
9849;DHT22;4963;51.444;6.528;2023-02-28T14:00:28;4.90;90.00
9849;DHT22;4963;51.444;6.528;2023-02-28T14:03:09;5.00;90.10
9849;DHT22;4963;51.444;6.528;2023-02-28T14:05:38;5.00;90.40
9849;DHT22;4963;51.444;6.528;2023-02-28T14:08:10;5.00;90.30
9849;DHT22;4963;51.444;6.528;2023-02-28T14:10:44;5.00;90.90
9849;DHT22;4963;51.444;6.528;2023-02-28T14:16:00;5.20;90.90
9849;DHT22;4963;51.444;6.528;2023-02-28T14:18:30;5.20;90.70
9849;DHT22;4963;51.444;6.528;2023-02-28T14:21:02;5.20;90.70
9849;DHT22;4963;51.444;6.528;2023-02-28T14:23:56;5.50;91.00
9849;DHT22;4963;51.444;6.528;2023-02-28T14:26:45;5.20;90.90
9849;DHT22;4963;51.444;6.528;2023-02-28T14:29:34;5.30;90.90
9849;DHT22;4963;51.444;6.528;2023-02-28T14:32:10;5.20;91.00
9849;DHT22;4963;51.444;6.528;2023-02-28T14:34:43;5.30;91.10
9849;DHT22;4963;51.444;6.528;2023-02-28T14:37:16;5.20;91.20
9849;DHT22;4963;51.444;6.528;2023-02-28T14:39:46;5.90;92.00
9849;DHT22;4963;51.444;6.528;2023-02-28T14:42:30;5.30;92.30
9849;DHT22;4963;51.444;6.528;2023-02-28T14:44:58;5.30;92.70
9849;DHT22;4963;51.444;6.528;2023-02-28T14:47:28;5.20;93.00
9849;DHT22;4963;51.444;6.528;2023-02-28T14:49:57;5.10;92.90
9849;DHT22;4963;51.444;6.528;2023-02-28T14:52:26;5.00;92.70
9849;DHT22;4963;51.444;6.528;2023-02-28T14:54:56;5.00;92.90
9849;DHT22;4963;51.444;6.528;2023-02-28T14:57:26;4.90;93.80
9849;DHT22;4963;51.444;6.528;2023-02-28T15:00:00;5.00;93.30
9849;DHT22;4963;51.444;6.528;2023-02-28T15:02:34;5.00;93.40
9849;DHT22;4963;51.444;6.528;2023-02-28T15:05:10;4.90;93.50
9849;DHT22;4963;51.444;6.528;2023-02-28T15:07:43;5.20;93.50
9849;DHT22;4963;51.444;6.528;2023-02-28T15:10:20;5.10;93.10
9849;DHT22;4963;51.444;6.528;2023-02-28T15:12:52;4.90;93.30
9849;DHT22;4963;51.444;6.528;2023-02-28T15:15:20;4.70;93.10
9849;DHT22;4963;51.444;6.528;2023-02-28T15:17:51;4.90;93.30
9849;DHT22;4963;51.444;6.528;2023-02-28T15:20:19;4.90;92.90
9849;DHT22;4963;51.444;6.528;2023-02-28T15:22:49;4.70;93.20
9849;DHT22;4963;51.444;6.528;2023-02-28T15:25:19;4.80;93.30
9849;DHT22;4963;51.444;6.528;2023-02-28T15:27:49;4.90;93.30
9849;DHT22;4963;51.444;6.528;2023-02-28T15:30:18;5.10;93.50
9849;DHT22;4963;51.444;6.528;2023-02-28T15:33:04;5.00;92.60
9849;DHT22;4963;51.444;6.528;2023-02-28T15:35:32;5.00;92.80
9849;DHT22;4963;51.444;6.528;2023-02-28T15:38:02;4.90;92.60
9849;DHT22;4963;51.444;6.528;2023-02-28T15:40:32;5.10;92.90
9849;DHT22;4963;51.444;6.528;2023-02-28T15:43:07;4.90;93.70
9849;DHT22;4963;51.444;6.528;2023-02-28T15:45:43;4.90;94.10
9849;DHT22;4963;51.444;6.528;2023-02-28T15:48:17;5.10;94.70
9849;DHT22;4963;51.444;6.528;2023-02-28T15:50:48;4.90;94.70
9849;DHT22;4963;51.444;6.528;2023-02-28T15:53:17;5.00;95.10
9849;DHT22;4963;51.444;6.528;2023-02-28T15:55:45;4.80;95.00
9849;DHT22;4963;51.444;6.528;2023-02-28T15:58:18;4.70;95.20
9849;DHT22;4963;51.444;6.528;2023-02-28T16:01:01;4.70;95.40
9849;DHT22;4963;51.444;6.528;2023-02-28T16:03:38;4.60;95.10
9849;DHT22;4963;51.444;6.528;2023-02-28T16:06:24;4.60;94.90
9849;DHT22;4963;51.444;6.528;2023-02-28T16:08:52;4.70;94.90
9849;DHT22;4963;51.444;6.528;2023-02-28T16:11:20;4.60;95.10
9849;DHT22;4963;51.444;6.528;2023-02-28T16:13:48;4.60;95.00
9849;DHT22;4963;51.444;6.528;2023-02-28T16:16:17;4.50;94.90
9849;DHT22;4963;51.444;6.528;2023-02-28T16:18:46;4.50;95.00
9849;DHT22;4963;51.444;6.528;2023-02-28T16:21:13;4.60;95.00
9849;DHT22;4963;51.444;6.528;2023-02-28T16:23:40;4.70;94.60
9849;DHT22;4963;51.444;6.528;2023-02-28T16:26:08;4.40;94.60
9849;DHT22;4963;51.444;6.528;2023-02-28T16:28:37;4.60;94.60
9849;DHT22;4963;51.444;6.528;2023-02-28T16:31:06;4.50;94.80
9849;DHT22;4963;51.444;6.528;2023-02-28T16:33:34;4.40;94.90
9849;DHT22;4963;51.444;6.528;2023-02-28T16:36:02;4.50;95.20
9849;DHT22;4963;51.444;6.528;2023-02-28T16:38:29;4.40;95.40
9849;DHT22;4963;51.444;6.528;2023-02-28T16:40:58;4.40;95.40
9849;DHT22;4963;51.444;6.528;2023-02-28T16:43:26;4.40;95.30
9849;DHT22;4963;51.444;6.528;2023-02-28T16:45:55;4.40;95.20
9849;DHT22;4963;51.444;6.528;2023-02-28T16:48:23;4.40;95.50
9849;DHT22;4963;51.444;6.528;2023-02-28T16:50:51;4.40;95.70
9849;DHT22;4963;51.444;6.528;2023-02-28T16:53:19;4.30;96.00